Time;durP1;ratioP1;P1;durP2;ratioP2;P2;SDS_P1;SDS_P2;PMS_P1;PMS_P2;Temp;Humidity;BMP_temperature;BMP_pressure;BME280_temperature;BME280_humidity;BME280_pressure;Samples;Min_cycle;Max_cycle;Signal;HPM_P1;HPM_P2
2023/05/23 00:01:13;;;;;;;0.10;0.10;;;;;;;;;;5054225;28;20085;-76
2023/05/23 00:03:39;;;;;;;0.10;0.10;;;;;;;;;;5054165;28;20508;-76
2023/05/23 00:06:05;;;;;;;0.20;0.20;;;;;;;;;;5053910;28;20036;-76
2023/05/23 00:08:31;;;;;;;0.10;0.10;;;;;;;;;;5071713;28;20090;-76
2023/05/23 00:10:56;;;;;;;0.17;0.17;;;;;;;;;;5071857;28;20024;-76
2023/05/23 00:13:21;;;;;;;0.20;0.20;;;;;;;;;;5071495;28;20120;-75
2023/05/23 00:15:47;;;;;;;0.20;0.20;;;;;;;;;;5071942;28;20464;-76
2023/05/23 00:18:13;;;;;;;0.10;0.10;;;;;;;;;;5072466;28;20115;-76
2023/05/23 00:20:40;;;;;;;0.10;0.10;;;;;;;;;;5075133;28;20040;-76
2023/05/23 00:23:06;;;;;;;0.20;0.20;;;;;;;;;;5056906;28;20464;-76
2023/05/23 00:25:33;;;;;;;2.83;2.00;;;;;;;;;;5075054;28;20035;-76
2023/05/23 00:27:58;;;;;;;0.20;0.20;;;;;;;;;;5074910;28;20369;-74
2023/05/23 00:30:24;;;;;;;0.20;0.20;;;;;;;;;;5075098;28;20040;-74
2023/05/23 00:32:53;;;;;;;0.20;0.20;;;;;;;;;;5074891;28;20145;-75
2023/05/23 00:35:19;;;;;;;0.20;0.20;;;;;;;;;;5057646;28;20143;-74
2023/05/23 00:37:46;;;;;;;0.10;0.10;;;;;;;;;;5074977;28;20532;-73
2023/05/23 00:40:12;;;;;;;1.98;1.58;;;;;;;;;;5074792;28;20123;-74
2023/05/23 00:42:38;;;;;;;0.95;0.95;;;;;;;;;;5056854;28;20048;-74
2023/05/23 00:45:04;;;;;;;0.20;0.20;;;;;;;;;;5075248;28;20044;-75
2023/05/23 00:47:29;;;;;;;0.10;0.10;;;;;;;;;;5075118;28;20086;-74
2023/05/23 00:49:55;;;;;;;0.20;0.20;;;;;;;;;;5074692;28;20040;-74
2023/05/23 00:52:21;;;;;;;0.10;0.10;;;;;;;;;;5056440;28;20410;-75
2023/05/23 00:54:46;;;;;;;0.10;0.10;;;;;;;;;;5056572;28;20078;-74
2023/05/23 00:57:12;;;;;;;0.13;0.13;;;;;;;;;;5056330;28;20028;-74
2023/05/23 00:59:37;;;;;;;0.10;0.10;;;;;;;;;;5074760;28;20036;-74
2023/05/23 01:02:06;;;;;;;0.10;0.10;;;;;;;;;;5056343;28;20071;-75
2023/05/23 01:04:33;;;;;;;0.10;0.10;;;;;;;;;;5056832;28;20120;-74
2023/05/23 01:06:59;;;;;;;0.20;0.20;;;;;;;;;;5056336;28;20020;-73
2023/05/23 01:09:26;;;;;;;0.10;0.10;;;;;;;;;;5074310;28;20036;-74
2023/05/23 01:12:02;;;;;;;0.10;0.10;;;;;;;;;;5074182;28;20422;-74
2023/05/23 01:14:42;;;;;;;0.10;0.10;;;;;;;;;;5056536;28;20082;-74
2023/05/23 01:17:07;;;;;;;;;;;;;;;;;;5056942;28;20036;-74
2023/05/23 01:19:39;;;;;;;0.10;0.10;;;;;;;;;;5056328;28;19912;-73
2023/05/23 01:22:10;;;;;;;0.10;0.10;;;;;;;;;;5056189;28;20071;-74
2023/05/23 01:24:45;;;;;;;0.10;0.10;;;;;;;;;;5056296;28;20455;-74
2023/05/23 01:27:29;;;;;;;0.40;0.40;;;;;;;;;;5056257;28;20467;-73
2023/05/23 01:29:57;;;;;;;0.10;0.10;;;;;;;;;;5073600;28;20123;-74
2023/05/23 01:32:23;;;;;;;0.10;0.10;;;;;;;;;;5074011;28;20040;-74
2023/05/23 01:34:51;;;;;;;0.20;0.20;;;;;;;;;;5073779;28;20040;-74
2023/05/23 01:37:18;;;;;;;0.20;0.20;;;;;;;;;;5073958;28;20119;-74
2023/05/23 01:39:44;;;;;;;0.10;0.10;;;;;;;;;;5055751;28;20028;-74
2023/05/23 01:42:09;;;;;;;0.20;0.20;;;;;;;;;;5073822;28;20034;-73
2023/05/23 01:44:35;;;;;;;0.20;0.20;;;;;;;;;;5074046;28;20029;-74
2023/05/23 01:47:02;;;;;;;0.10;0.10;;;;;;;;;;5074064;28;20039;-73
2023/05/23 01:49:28;;;;;;;0.17;0.17;;;;;;;;;;5039093;28;20028;-74
2023/05/23 01:51:54;;;;;;;1.08;1.08;;;;;;;;;;5055860;28;20145;-74
2023/05/23 01:54:19;;;;;;;1.85;1.75;;;;;;;;;;5073683;28;20036;-73
2023/05/23 01:56:46;;;;;;;0.47;0.47;;;;;;;;;;5055707;28;20031;-73
2023/05/23 01:59:11;;;;;;;0.20;0.20;;;;;;;;;;5055670;28;20036;-73
2023/05/23 02:01:37;;;;;;;1.38;1.38;;;;;;;;;;5055428;28;20471;-74
2023/05/23 02:04:03;;;;;;;0.17;0.17;;;;;;;;;;5073380;28;20032;-74
2023/05/23 02:06:30;;;;;;;0.10;0.10;;;;;;;;;;5055450;28;20029;-74
2023/05/23 02:08:57;;;;;;;0.10;0.10;;;;;;;;;;5073434;28;20036;-74
2023/05/23 02:11:22;;;;;;;0.10;0.10;;;;;;;;;;5055513;28;20036;-74
2023/05/23 02:13:49;;;;;;;0.10;0.10;;;;;;;;;;5073397;28;20415;-74
2023/05/23 02:16:14;;;;;;;0.10;0.10;;;;;;;;;;5073273;28;20106;-75
2023/05/23 02:18:40;;;;;;;1.10;1.10;;;;;;;;;;5055206;28;20036;-75
2023/05/23 02:21:05;;;;;;;0.20;0.20;;;;;;;;;;5055407;28;20120;-75
2023/05/23 02:23:31;;;;;;;0.20;0.20;;;;;;;;;;5038801;28;20119;-76
2023/05/23 02:25:56;;;;;;;0.20;0.20;;;;;;;;;;5055300;28;20031;-75
2023/05/23 02:28:21;;;;;;;0.10;0.10;;;;;;;;;;5073170;28;20032;-75
2023/05/23 02:30:48;;;;;;;0.20;0.20;;;;;;;;;;5073172;28;20039;-75
2023/05/23 02:33:13;;;;;;;0.10;0.10;;;;;;;;;;5054861;28;20041;-76
2023/05/23 02:35:39;;;;;;;0.10;0.10;;;;;;;;;;5054883;28;20090;-74
2023/05/23 02:38:04;;;;;;;0.10;0.10;;;;;;;;;;5072852;28;20028;-73
2023/05/23 02:40:29;;;;;;;0.15;0.15;;;;;;;;;;5072694;28;20566;-74
2023/05/23 02:42:56;;;;;;;0.38;0.38;;;;;;;;;;5054471;28;20044;-73
2023/05/23 02:45:23;;;;;;;0.10;0.10;;;;;;;;;;5054976;28;20430;-73
2023/05/23 02:47:48;;;;;;;0.10;0.10;;;;;;;;;;5072797;28;20076;-73
2023/05/23 02:50:14;;;;;;;0.20;0.20;;;;;;;;;;5038241;28;20036;-73
2023/05/23 02:52:41;;;;;;;0.20;0.20;;;;;;;;;;5054941;28;20399;-74
2023/05/23 02:55:07;;;;;;;0.75;0.75;;;;;;;;;;5054795;28;20452;-74
2023/05/23 02:57:38;;;;;;;0.20;0.20;;;;;;;;;;5039094;28;20463;-74
2023/05/23 03:00:04;;;;;;;0.10;0.10;;;;;;;;;;5072582;28;20044;-75
2023/05/23 03:02:30;;;;;;;0.20;0.20;;;;;;;;;;5050426;28;20488;-74
2023/05/23 03:04:56;;;;;;;0.20;0.20;;;;;;;;;;5050278;28;20039;-74
2023/05/23 03:07:22;;;;;;;0.20;0.20;;;;;;;;;;5050303;28;20033;-74
2023/05/23 03:09:47;;;;;;;0.10;0.10;;;;;;;;;;5050850;28;20049;-74
2023/05/23 03:12:13;;;;;;;1.20;1.20;;;;;;;;;;5050230;28;20036;-74
2023/05/23 03:14:38;;;;;;;0.20;0.20;;;;;;;;;;5050458;28;20029;-74
2023/05/23 03:17:04;;;;;;;0.10;0.10;;;;;;;;;;5068292;28;20475;-74
2023/05/23 03:19:29;;;;;;;0.10;0.10;;;;;;;;;;5050260;28;20411;-74
2023/05/23 03:21:55;;;;;;;0.10;0.10;;;;;;;;;;5051089;28;20127;-75
2023/05/23 03:24:20;;;;;;;0.20;0.20;;;;;;;;;;5050735;28;20506;-75
2023/05/23 03:26:46;;;;;;;0.32;0.32;;;;;;;;;;5050948;28;20120;-76
2023/05/23 03:29:11;;;;;;;0.13;0.13;;;;;;;;;;5068298;28;20496;-75
2023/05/23 03:31:37;;;;;;;0.10;0.10;;;;;;;;;;5068281;28;20517;-75
2023/05/23 03:34:04;;;;;;;0.20;0.20;;;;;;;;;;5049542;28;20078;-75
2023/05/23 03:36:32;;;;;;;0.80;0.80;;;;;;;;;;5050356;28;20063;-75
2023/05/23 03:38:57;;;;;;;0.20;0.20;;;;;;;;;;5068467;28;20116;-75
2023/05/23 03:41:23;;;;;;;0.10;0.10;;;;;;;;;;5050128;28;20119;-73
2023/05/23 03:43:48;;;;;;;0.43;0.43;;;;;;;;;;5050058;28;20086;-74
2023/05/23 03:46:14;;;;;;;0.20;0.20;;;;;;;;;;5049633;28;20380;-74
2023/05/23 03:48:40;;;;;;;0.30;0.30;;;;;;;;;;5049883;28;20120;-74
2023/05/23 03:51:06;;;;;;;0.10;0.10;;;;;;;;;;5066971;28;20111;-74
2023/05/23 03:53:31;;;;;;;0.10;0.10;;;;;;;;;;5069903;28;20036;-74
2023/05/23 03:55:57;;;;;;;0.10;0.10;;;;;;;;;;5071610;28;20472;-75
2023/05/23 03:58:23;;;;;;;0.10;0.10;;;;;;;;;;5053494;28;20613;-74
2023/05/23 04:00:53;;;;;;;0.10;0.10;;;;;;;;;;5053902;28;20110;-76
2023/05/23 04:03:20;;;;;;;0.52;0.52;;;;;;;;;;5053204;28;20044;-76
2023/05/23 04:05:45;;;;;;;0.25;0.25;;;;;;;;;;5053470;28;20551;-76
2023/05/23 04:08:11;;;;;;;0.35;0.35;;;;;;;;;;5053039;28;20033;-76
2023/05/23 04:10:37;;;;;;;0.20;0.20;;;;;;;;;;5036743;28;20483;-76
2023/05/23 04:13:03;;;;;;;0.20;0.20;;;;;;;;;;5053483;28;20078;-76
2023/05/23 04:15:28;;;;;;;0.20;0.20;;;;;;;;;;5053298;28;20044;-76
2023/05/23 04:17:57;;;;;;;0.40;0.40;;;;;;;;;;5052878;28;20028;-75
2023/05/23 04:20:23;;;;;;;0.35;0.35;;;;;;;;;;5052929;28;20277;-75
2023/05/23 04:22:49;;;;;;;1.65;1.38;;;;;;;;;;5052852;28;20672;-74
2023/05/23 04:25:17;;;;;;;0.10;0.10;;;;;;;;;;5051076;28;20048;-74
2023/05/23 04:27:50;;;;;;;0.10;0.10;;;;;;;;;;5051491;28;20032;-73
2023/05/23 04:30:17;;;;;;;0.13;0.13;;;;;;;;;;5070695;28;20047;-74
2023/05/23 04:32:43;;;;;;;0.10;0.10;;;;;;;;;;5052274;28;20450;-74
2023/05/23 04:35:09;;;;;;;2.22;1.63;;;;;;;;;;5052403;28;20052;-74
2023/05/23 04:37:38;;;;;;;0.10;0.10;;;;;;;;;;5052855;28;20083;-74
2023/05/23 04:40:06;;;;;;;0.10;0.10;;;;;;;;;;5052764;28;20094;-74
2023/05/23 04:42:52;;;;;;;0.10;0.10;;;;;;;;;;5071021;28;20046;-74
2023/05/23 04:45:29;;;;;;;;;;;;;;;;;;5053340;28;20038;-74
2023/05/23 04:48:01;;;;;;;0.50;0.50;;;;;;;;;;5052711;28;19919;-74
2023/05/23 04:50:34;;;;;;;0.10;0.10;;;;;;;;;;5052835;28;20036;-75
2023/05/23 04:53:01;;;;;;;0.20;0.20;;;;;;;;;;5052607;28;20086;-74
2023/05/23 04:55:26;;;;;;;0.50;0.50;;;;;;;;;;5052273;28;20480;-74
2023/05/23 04:57:52;;;;;;;0.88;0.85;;;;;;;;;;5052786;28;20033;-73
2023/05/23 05:00:19;;;;;;;0.10;0.10;;;;;;;;;;5052052;28;20085;-74
2023/05/23 05:02:44;;;;;;;0.15;0.15;;;;;;;;;;5068613;28;20044;-75
2023/05/23 05:05:10;;;;;;;0.10;0.10;;;;;;;;;;5068963;28;20365;-76
2023/05/23 05:07:36;;;;;;;0.10;0.10;;;;;;;;;;5069657;28;20046;-75
2023/05/23 05:10:03;;;;;;;0.10;0.10;;;;;;;;;;5051722;28;20117;-75
2023/05/23 05:12:30;;;;;;;0.13;0.13;;;;;;;;;;5051591;28;20055;-75
2023/05/23 05:14:56;;;;;;;0.10;0.10;;;;;;;;;;5061756;28;20036;-68
2023/05/23 05:17:22;;;;;;;0.20;0.20;;;;;;;;;;5071511;28;20113;-67
2023/05/23 05:20:01;;;;;;;;;;;;;;;;;;5069027;28;20123;-68
2023/05/23 05:22:27;;;;;;;0.30;0.30;;;;;;;;;;5051919;28;20323;-68
2023/05/23 05:24:52;;;;;;;0.20;0.20;;;;;;;;;;5068867;28;20025;-68
2023/05/23 05:27:17;;;;;;;0.20;0.20;;;;;;;;;;5051110;28;20020;-68
2023/05/23 05:29:43;;;;;;;0.20;0.20;;;;;;;;;;5069726;28;20387;-67
2023/05/23 05:32:08;;;;;;;0.20;0.20;;;;;;;;;;5051542;28;20410;-69
2023/05/23 05:34:34;;;;;;;0.50;0.50;;;;;;;;;;5057792;28;20036;-68
2023/05/23 05:36:59;;;;;;;0.15;0.15;;;;;;;;;;5090358;28;20104;-68
2023/05/23 05:39:25;;;;;;;0.20;0.20;;;;;;;;;;5064893;28;20059;-67
2023/05/23 05:41:50;;;;;;;0.30;0.30;;;;;;;;;;5073150;28;22008;-68
2023/05/23 05:44:16;;;;;;;0.47;0.47;;;;;;;;;;5058918;28;20479;-68
2023/05/23 05:46:43;;;;;;;0.65;0.65;;;;;;;;;;5047584;28;20040;-67
2023/05/23 05:49:09;;;;;;;0.20;0.20;;;;;;;;;;5069720;28;20039;-67
2023/05/23 05:51:35;;;;;;;0.20;0.20;;;;;;;;;;5051599;28;20361;-69
2023/05/23 05:54:01;;;;;;;0.47;0.47;;;;;;;;;;5034779;28;20028;-69
2023/05/23 05:56:26;;;;;;;0.20;0.20;;;;;;;;;;5051784;28;20036;-69
2023/05/23 05:58:52;;;;;;;0.20;0.20;;;;;;;;;;5070082;28;20488;-68
2023/05/23 06:01:17;;;;;;;0.22;0.22;;;;;;;;;;5052031;28;20035;-67
2023/05/23 06:03:43;;;;;;;0.20;0.20;;;;;;;;;;5051939;28;20442;-68
2023/05/23 06:06:09;;;;;;;1.45;1.20;;;;;;;;;;5051453;28;20483;-68
2023/05/23 06:08:37;;;;;;;0.20;0.20;;;;;;;;;;5051550;28;20044;-69
2023/05/23 06:11:02;;;;;;;0.35;0.35;;;;;;;;;;5051660;28;20131;-68
2023/05/23 06:13:29;;;;;;;0.20;0.20;;;;;;;;;;5070034;28;20428;-68
2023/05/23 06:15:55;;;;;;;0.20;0.20;;;;;;;;;;5051675;28;20083;-68
2023/05/23 06:18:21;;;;;;;2.85;2.75;;;;;;;;;;5069351;28;20025;-68
2023/05/23 06:20:48;;;;;;;0.20;0.20;;;;;;;;;;5051106;28;20428;-68
2023/05/23 06:23:15;;;;;;;0.20;0.20;;;;;;;;;;5050730;28;20068;-68
2023/05/23 06:25:40;;;;;;;0.20;0.20;;;;;;;;;;5074548;28;20068;-67
2023/05/23 06:28:06;;;;;;;0.20;0.20;;;;;;;;;;5070776;28;20024;-67
2023/05/23 06:30:33;;;;;;;0.30;0.30;;;;;;;;;;5071097;28;20043;-67
2023/05/23 06:32:59;;;;;;;0.20;0.20;;;;;;;;;;5089529;28;20391;-69
2023/05/23 06:35:24;;;;;;;0.20;0.20;;;;;;;;;;5078640;28;20043;-68
2023/05/23 06:37:49;;;;;;;0.20;0.20;;;;;;;;;;5069161;28;20028;-68
2023/05/23 06:40:17;;;;;;;0.20;0.20;;;;;;;;;;5068852;28;20412;-69
2023/05/23 06:42:42;;;;;;;0.20;0.20;;;;;;;;;;5069096;28;20040;-67
2023/05/23 06:45:37;;;;;;;0.20;0.20;;;;;;;;;;5060037;28;20128;-68
2023/05/23 06:48:03;;;;;;;0.20;0.20;;;;;;;;;;5068661;28;20135;-68
2023/05/23 06:50:30;;;;;;;0.20;0.20;;;;;;;;;;5034386;28;20036;-68
2023/05/23 06:52:55;;;;;;;0.20;0.20;;;;;;;;;;5051302;28;20031;-69
2023/05/23 06:55:21;;;;;;;0.20;0.20;;;;;;;;;;5050698;28;20074;-67
2023/05/23 06:57:50;;;;;;;0.20;0.20;;;;;;;;;;5050902;28;20032;-68
2023/05/23 07:00:17;;;;;;;0.30;0.30;;;;;;;;;;5050604;28;20566;-68
2023/05/23 07:02:59;;;;;;;;;;;;;;;;;;5051352;28;20037;-67
2023/05/23 07:05:26;;;;;;;0.30;0.30;;;;;;;;;;5050331;28;20002;-68
2023/05/23 07:07:51;;;;;;;0.20;0.20;;;;;;;;;;5050688;28;20119;-68
2023/05/23 07:10:18;;;;;;;0.20;0.20;;;;;;;;;;5050223;28;20550;-67
2023/05/23 07:12:45;;;;;;;0.30;0.30;;;;;;;;;;5050331;28;20024;-67
2023/05/23 07:15:11;;;;;;;0.55;0.55;;;;;;;;;;5050498;28;20097;-68
2023/05/23 07:17:45;;;;;;;0.20;0.20;;;;;;;;;;5050475;28;20110;-67
2023/05/23 07:20:10;;;;;;;0.20;0.20;;;;;;;;;;5050139;28;20488;-68
2023/05/23 07:22:37;;;;;;;0.30;0.30;;;;;;;;;;5049421;28;20395;-69
2023/05/23 07:25:02;;;;;;;0.20;0.20;;;;;;;;;;5068025;28;20024;-68
2023/05/23 07:27:31;;;;;;;3.53;1.02;;;;;;;;;;5048679;28;20041;-68
2023/05/23 07:29:57;;;;;;;0.30;0.30;;;;;;;;;;5046929;28;20075;-67
2023/05/23 07:32:22;;;;;;;0.20;0.20;;;;;;;;;;5048916;28;20028;-67
2023/05/23 07:34:47;;;;;;;0.20;0.20;;;;;;;;;;5048850;28;20068;-66
2023/05/23 07:37:13;;;;;;;0.20;0.20;;;;;;;;;;5036306;28;20062;-67
2023/05/23 07:39:42;;;;;;;0.30;0.30;;;;;;;;;;5065247;28;20024;-68
2023/05/23 07:42:07;;;;;;;0.20;0.20;;;;;;;;;;5049156;28;20433;-67
2023/05/23 07:44:33;;;;;;;0.40;0.40;;;;;;;;;;5066923;28;20033;-69
2023/05/23 07:46:59;;;;;;;0.20;0.20;;;;;;;;;;5049508;28;20032;-68
2023/05/23 07:49:24;;;;;;;0.20;0.20;;;;;;;;;;5045448;28;20037;-68
2023/05/23 07:51:51;;;;;;;0.20;0.20;;;;;;;;;;5049753;28;20036;-69
2023/05/23 07:54:17;;;;;;;0.32;0.32;;;;;;;;;;5049726;28;20044;-68
2023/05/23 07:56:43;;;;;;;0.25;0.25;;;;;;;;;;5049195;28;20036;-68
2023/05/23 07:59:08;;;;;;;0.20;0.20;;;;;;;;;;5048660;28;20024;-68
2023/05/23 08:01:35;;;;;;;0.20;0.20;;;;;;;;;;5049649;28;20400;-69
2023/05/23 08:04:05;;;;;;;0.20;0.20;;;;;;;;;;5050545;28;20029;-68
2023/05/23 08:06:36;;;;;;;0.77;0.70;;;;;;;;;;5059856;28;20047;-71
2023/05/23 08:09:06;;;;;;;0.20;0.20;;;;;;;;;;5069747;28;20032;-69
2023/05/23 08:11:33;;;;;;;0.32;0.25;;;;;;;;;;5070052;28;20034;-68
2023/05/23 08:13:59;;;;;;;0.20;0.20;;;;;;;;;;5051571;28;20124;-69
2023/05/23 08:16:37;;;;;;;0.20;0.20;;;;;;;;;;5067639;28;20369;-68
2023/05/23 08:19:06;;;;;;;0.20;0.20;;;;;;;;;;5049856;28;20032;-68
2023/05/23 08:21:32;;;;;;;0.22;0.22;;;;;;;;;;5049249;28;20024;-69
2023/05/23 08:23:58;;;;;;;0.20;0.20;;;;;;;;;;5067113;28;20036;-68
2023/05/23 08:26:23;;;;;;;0.28;0.28;;;;;;;;;;5046875;28;20028;-70
2023/05/23 08:28:50;;;;;;;0.28;0.28;;;;;;;;;;5053368;28;20111;-69
2023/05/23 08:31:17;;;;;;;0.20;0.20;;;;;;;;;;5049815;28;20024;-67
2023/05/23 08:33:43;;;;;;;0.20;0.20;;;;;;;;;;5049354;28;20039;-68
2023/05/23 08:36:09;;;;;;;0.95;0.88;;;;;;;;;;5056013;28;20028;-67
2023/05/23 08:38:34;;;;;;;0.32;0.32;;;;;;;;;;5058956;28;20079;-68
2023/05/23 08:41:20;;;;;;;1.83;1.15;;;;;;;;;;5051392;28;20535;-68
2023/05/23 08:43:47;;;;;;;0.20;0.20;;;;;;;;;;5075870;28;20028;-70
2023/05/23 08:46:21;;;;;;;2.85;2.75;;;;;;;;;;5057751;28;20048;-69
2023/05/23 08:48:49;;;;;;;1.58;0.47;;;;;;;;;;5066203;28;20037;-68
2023/05/23 08:51:16;;;;;;;6.63;2.50;;;;;;;;;;5072024;28;20028;-68
2023/05/23 08:53:52;;;;;;;11.27;0.90;;;;;;;;;;5056616;28;20044;-68
2023/05/23 08:56:19;;;;;;;1.73;0.80;;;;;;;;;;5051359;28;20124;-70
2023/05/23 08:58:47;;;;;;;3.87;1.80;;;;;;;;;;5051035;28;20040;-69
2023/05/23 09:01:17;;;;;;;0.75;0.75;;;;;;;;;;5050642;28;20116;-67
2023/05/23 09:03:43;;;;;;;0.47;0.47;;;;;;;;;;5050649;28;20071;-66
2023/05/23 09:06:23;;;;;;;0.45;0.45;;;;;;;;;;5050235;28;20020;-66
2023/05/23 09:08:48;;;;;;;4.05;2.33;;;;;;;;;;5050434;28;20039;-68
2023/05/23 09:11:16;;;;;;;0.88;0.85;;;;;;;;;;5050184;28;20024;-70
2023/05/23 09:13:43;;;;;;;16.38;6.80;;;;;;;;;;5050376;28;20478;-67
2023/05/23 09:16:16;;;;;;;0.30;0.30;;;;;;;;;;5050049;28;20033;-70
2023/05/23 09:19:12;;;;;;;1.55;1.38;;;;;;;;;;5067406;28;20040;-69
2023/05/23 09:21:42;;;;;;;0.68;0.65;;;;;;;;;;5050444;28;20075;-69
2023/05/23 09:24:14;;;;;;;3.13;2.58;;;;;;;;;;5052072;28;20032;-68
2023/05/23 09:26:40;;;;;;;0.30;0.30;;;;;;;;;;5052156;28;20391;-69
2023/05/23 09:29:06;;;;;;;4.95;2.30;;;;;;;;;;5052236;28;20016;-67
2023/05/23 09:31:32;;;;;;;1.23;1.13;;;;;;;;;;5051773;28;20441;-67
2023/05/23 09:33:57;;;;;;;0.50;0.35;;;;;;;;;;5052252;28;20071;-66
2023/05/23 09:36:27;;;;;;;1.17;1.10;;;;;;;;;;5051443;28;20484;-68
2023/05/23 09:38:52;;;;;;;2.30;2.10;;;;;;;;;;5051842;28;20029;-67
2023/05/23 09:41:21;;;;;;;0.63;0.57;;;;;;;;;;5051671;28;20075;-67
2023/05/23 09:43:51;;;;;;;0.30;0.30;;;;;;;;;;5070365;28;20039;-69
2023/05/23 09:46:17;;;;;;;8.50;1.90;;;;;;;;;;5051523;28;20135;-68
2023/05/23 09:48:46;;;;;;;0.20;0.20;;;;;;;;;;5070198;28;20458;-66
2023/05/23 09:51:12;;;;;;;0.50;0.47;;;;;;;;;;5069689;28;20496;-69
2023/05/23 09:53:37;;;;;;;1.10;0.85;;;;;;;;;;5069935;28;20032;-67
2023/05/23 09:56:03;;;;;;;1.70;1.40;;;;;;;;;;5069496;28;20037;-67
2023/05/23 09:58:31;;;;;;;0.55;0.55;;;;;;;;;;5069637;28;20484;-67
2023/05/23 10:01:01;;;;;;;0.20;0.20;;;;;;;;;;5069577;28;20048;-68
2023/05/23 10:03:34;;;;;;;0.85;0.77;;;;;;;;;;5069722;28;20489;-67
2023/05/23 10:06:03;;;;;;;4.13;3.72;;;;;;;;;;5069063;28;20406;-69
2023/05/23 10:08:30;;;;;;;;;;;;;;;;;;5069903;28;20021;-68
2023/05/23 10:10:55;;;;;;;3.17;1.73;;;;;;;;;;5069609;28;19947;-68
2023/05/23 10:13:21;;;;;;;1.53;1.10;;;;;;;;;;5069405;28;20086;-66
2023/05/23 10:15:48;;;;;;;7.47;5.07;;;;;;;;;;5069510;28;20294;-67
2023/05/23 10:18:16;;;;;;;1.15;1.05;;;;;;;;;;5069260;28;20044;-67
2023/05/23 10:20:43;;;;;;;2.67;1.77;;;;;;;;;;5069426;28;20040;-66
2023/05/23 10:23:08;;;;;;;1.17;0.95;;;;;;;;;;5069353;28;20029;-68
2023/05/23 10:25:35;;;;;;;1.85;0.75;;;;;;;;;;5069762;28;20055;-67
2023/05/23 10:28:01;;;;;;;1.15;0.93;;;;;;;;;;5069067;28;20041;-68
2023/05/23 10:30:27;;;;;;;2.42;1.08;;;;;;;;;;5069149;28;20036;-69
2023/05/23 10:32:56;;;;;;;2.63;1.20;;;;;;;;;;5069318;28;20036;-66
2023/05/23 10:35:21;;;;;;;;;;;;;;;;;;5069429;28;20593;-69
2023/05/23 10:37:56;;;;;;;0.80;0.80;;;;;;;;;;5069622;28;20031;-69
2023/05/23 10:40:21;;;;;;;0.65;0.65;;;;;;;;;;5068636;28;20036;-69
2023/05/23 10:43:05;;;;;;;0.43;0.43;;;;;;;;;;5069387;28;20490;-67
2023/05/23 10:45:38;;;;;;;0.20;0.20;;;;;;;;;;5069609;28;20040;-67
2023/05/23 10:48:15;;;;;;;2.10;1.63;;;;;;;;;;5068732;28;20040;-67
2023/05/23 10:50:41;;;;;;;1.27;0.85;;;;;;;;;;5068965;28;20041;-66
2023/05/23 10:53:08;;;;;;;4.47;1.83;;;;;;;;;;5068623;28;20032;-69
2023/05/23 10:55:34;;;;;;;0.40;0.40;;;;;;;;;;5068748;28;20036;-67
2023/05/23 10:58:19;;;;;;;2.08;1.10;;;;;;;;;;5068972;28;20101;-70
2023/05/23 11:00:54;;;;;;;1.83;1.73;;;;;;;;;;5068633;28;20507;-68
2023/05/23 11:03:32;;;;;;;2.38;1.23;;;;;;;;;;5049996;28;20074;-68
2023/05/23 11:05:58;;;;;;;1.35;1.15;;;;;;;;;;5051040;28;20032;-67
2023/05/23 11:08:23;;;;;;;3.83;2.42;;;;;;;;;;5068438;28;20039;-69
2023/05/23 11:11:02;;;;;;;1.50;1.40;;;;;;;;;;5068712;28;20021;-69
2023/05/23 11:13:46;;;;;;;0.30;0.30;;;;;;;;;;5068627;28;20032;-69
2023/05/23 11:16:30;;;;;;;1.05;0.95;;;;;;;;;;5068355;28;20027;-67
2023/05/23 11:19:14;;;;;;;0.47;0.43;;;;;;;;;;5068772;28;20036;-69
2023/05/23 11:21:40;;;;;;;5.25;2.97;;;;;;;;;;5068745;28;20047;-67
2023/05/23 11:24:08;;;;;;;2.97;1.50;;;;;;;;;;5068106;28;20028;-67
2023/05/23 11:26:33;;;;;;;2.63;1.48;;;;;;;;;;5068457;28;20083;-69
2023/05/23 11:28:58;;;;;;;3.45;1.95;;;;;;;;;;5068417;28;20063;-68
2023/05/23 11:31:24;;;;;;;12.00;2.70;;;;;;;;;;5068266;28;20032;-66
2023/05/23 11:33:53;;;;;;;3.63;1.88;;;;;;;;;;5068118;28;20510;-70
2023/05/23 11:36:20;;;;;;;0.28;0.28;;;;;;;;;;5068571;28;20602;-67
2023/05/23 11:38:45;;;;;;;1.50;1.05;;;;;;;;;;5068214;28;20028;-69
2023/05/23 11:41:11;;;;;;;3.70;1.50;;;;;;;;;;5068075;28;20078;-69
2023/05/23 11:43:36;;;;;;;0.85;0.55;;;;;;;;;;5068281;28;20404;-68
2023/05/23 11:46:08;;;;;;;0.35;0.35;;;;;;;;;;5067949;28;20039;-69
2023/05/23 11:48:33;;;;;;;1.25;0.90;;;;;;;;;;5068250;28;20045;-69
2023/05/23 11:50:58;;;;;;;2.13;1.23;;;;;;;;;;5068524;28;20963;-69
2023/05/23 11:53:26;;;;;;;2.50;1.27;;;;;;;;;;5069053;28;20032;-70
2023/05/23 11:55:53;;;;;;;1.95;0.95;;;;;;;;;;5073157;28;20032;-69
2023/05/23 11:58:25;;;;;;;1.25;1.02;;;;;;;;;;5070273;28;20051;-70
2023/05/23 12:00:50;;;;;;;3.25;1.83;;;;;;;;;;5063857;28;20028;-70
2023/05/23 12:03:16;;;;;;;2.50;0.90;;;;;;;;;;5067870;28;20086;-69
2023/05/23 12:05:42;;;;;;;1.17;0.98;;;;;;;;;;5068076;28;20020;-70
2023/05/23 12:08:09;;;;;;;1.52;1.42;;;;;;;;;;5061022;28;20058;-67
2023/05/23 12:10:35;;;;;;;4.45;2.28;;;;;;;;;;5069220;28;20472;-70
2023/05/23 12:13:01;;;;;;;0.45;0.40;;;;;;;;;;5069490;28;20061;-69
2023/05/23 12:15:27;;;;;;;8.38;1.55;;;;;;;;;;5065063;28;20075;-68
2023/05/23 12:17:53;;;;;;;9.25;3.40;;;;;;;;;;5080832;28;20140;-68
2023/05/23 12:20:18;;;;;;;0.85;0.63;;;;;;;;;;5071090;28;20131;-69
2023/05/23 12:22:44;;;;;;;8.38;3.30;;;;;;;;;;5071126;28;20028;-69
2023/05/23 12:25:10;;;;;;;6.65;1.85;;;;;;;;;;5074034;28;20036;-69
2023/05/23 12:27:36;;;;;;;0.55;0.47;;;;;;;;;;5073749;28;20123;-69
2023/05/23 12:30:12;;;;;;;1.65;1.17;;;;;;;;;;5091006;28;20028;-69
2023/05/23 12:32:38;;;;;;;1.70;1.17;;;;;;;;;;5082341;28;20028;-69
2023/05/23 12:35:04;;;;;;;2.03;0.85;;;;;;;;;;5064906;28;20047;-70
2023/05/23 12:37:30;;;;;;;1.48;1.00;;;;;;;;;;5078914;28;20033;-68
2023/05/23 12:39:55;;;;;;;0.30;0.30;;;;;;;;;;5066005;28;20020;-69
2023/05/23 12:42:20;;;;;;;0.82;0.82;;;;;;;;;;5060797;28;20033;-68
2023/05/23 12:44:49;;;;;;;2.80;1.77;;;;;;;;;;5050165;28;20027;-67
2023/05/23 12:47:15;;;;;;;1.88;1.40;;;;;;;;;;5050156;28;20392;-68
2023/05/23 12:49:40;;;;;;;3.47;2.60;;;;;;;;;;5051091;28;20041;-67
2023/05/23 12:52:06;;;;;;;3.17;1.15;;;;;;;;;;5050401;28;20040;-68
2023/05/23 12:54:31;;;;;;;3.95;1.67;;;;;;;;;;5050909;28;20048;-68
2023/05/23 12:56:57;;;;;;;1.83;1.27;;;;;;;;;;5049201;28;20029;-68
2023/05/23 12:59:22;;;;;;;8.48;2.55;;;;;;;;;;5050711;28;20033;-68
2023/05/23 13:01:48;;;;;;;0.80;0.68;;;;;;;;;;5050562;28;20033;-68
2023/05/23 13:04:13;;;;;;;3.97;2.15;;;;;;;;;;5050353;28;20029;-67
2023/05/23 13:06:38;;;;;;;0.47;0.47;;;;;;;;;;5050971;28;20040;-68
2023/05/23 13:09:04;;;;;;;5.30;2.17;;;;;;;;;;5050275;28;20036;-68
2023/05/23 13:11:30;;;;;;;2.45;1.27;;;;;;;;;;5050521;28;20037;-68
2023/05/23 13:13:55;;;;;;;0.88;0.85;;;;;;;;;;5049507;28;20045;-68
2023/05/23 13:16:21;;;;;;;1.50;1.05;;;;;;;;;;5050435;28;20108;-68
2023/05/23 13:18:46;;;;;;;1.13;0.75;;;;;;;;;;5050333;28;20116;-68
2023/05/23 13:21:12;;;;;;;0.70;0.70;;;;;;;;;;5050501;28;20119;-68
2023/05/23 13:23:37;;;;;;;3.95;2.53;;;;;;;;;;5050425;28;20037;-68
2023/05/23 13:26:03;;;;;;;0.40;0.40;;;;;;;;;;5049343;28;20032;-67
2023/05/23 13:28:29;;;;;;;0.30;0.30;;;;;;;;;;5050333;28;20032;-69
2023/05/23 13:30:54;;;;;;;1.98;1.10;;;;;;;;;;5050434;28;20048;-67
2023/05/23 13:33:21;;;;;;;3.00;1.15;;;;;;;;;;5050326;28;20112;-68
2023/05/23 13:35:48;;;;;;;2.28;1.13;;;;;;;;;;5050308;28;20431;-68
2023/05/23 13:38:14;;;;;;;3.83;2.63;;;;;;;;;;5050066;28;20037;-69
2023/05/23 13:40:39;;;;;;;5.13;3.10;;;;;;;;;;5050090;28;20040;-67
2023/05/23 13:43:05;;;;;;;3.75;1.98;;;;;;;;;;5050215;28;20033;-67
2023/05/23 13:45:32;;;;;;;1.17;0.52;;;;;;;;;;5050007;28;20464;-68
2023/05/23 13:47:57;;;;;;;0.80;0.60;;;;;;;;;;5049960;28;20056;-68
2023/05/23 13:50:23;;;;;;;4.65;2.90;;;;;;;;;;5049840;28;20458;-68
2023/05/23 13:52:48;;;;;;;10.23;4.63;;;;;;;;;;5049678;28;20028;-66
2023/05/23 13:55:14;;;;;;;1.48;1.20;;;;;;;;;;5049732;28;20045;-68
2023/05/23 13:57:39;;;;;;;4.53;2.28;;;;;;;;;;5049749;28;20036;-72
2023/05/23 14:00:05;;;;;;;0.52;0.52;;;;;;;;;;5048412;28;20033;-67
2023/05/23 14:02:33;;;;;;;4.88;2.83;;;;;;;;;;5050073;28;20040;-69
2023/05/23 14:04:58;;;;;;;36.58;5.65;;;;;;;;;;5048983;28;20064;-67
2023/05/23 14:07:24;;;;;;;1.83;1.48;;;;;;;;;;5049581;28;20459;-69
2023/05/23 14:09:49;;;;;;;5.60;3.10;;;;;;;;;;5049635;28;20028;-69
2023/05/23 14:12:15;;;;;;;0.35;0.35;;;;;;;;;;5049247;28;20464;-69
2023/05/23 14:14:40;;;;;;;1.77;1.10;;;;;;;;;;5049702;28;20400;-69
2023/05/23 14:17:05;;;;;;;0.22;0.22;;;;;;;;;;5049513;28;20393;-70
2023/05/23 14:19:31;;;;;;;3.95;2.35;;;;;;;;;;5049220;28;20374;-70
2023/05/23 14:21:56;;;;;;;2.28;1.73;;;;;;;;;;5049255;28;20105;-67
2023/05/23 14:24:22;;;;;;;2.85;2.03;;;;;;;;;;5049096;28;20069;-67
2023/05/23 14:26:48;;;;;;;13.60;1.27;;;;;;;;;;5049540;28;20541;-68
2023/05/23 14:29:14;;;;;;;2.40;1.65;;;;;;;;;;5049242;28;20033;-66
2023/05/23 14:31:39;;;;;;;4.05;1.65;;;;;;;;;;5049116;28;20365;-68
2023/05/23 14:34:05;;;;;;;7.65;2.92;;;;;;;;;;5048939;28;20452;-68
2023/05/23 14:36:30;;;;;;;1.58;1.20;;;;;;;;;;5048679;28;20037;-67
2023/05/23 14:38:56;;;;;;;3.95;2.33;;;;;;;;;;5048347;28;20021;-67
2023/05/23 14:41:21;;;;;;;2.53;1.83;;;;;;;;;;5049335;28;20064;-68
2023/05/23 14:43:47;;;;;;;3.58;2.30;;;;;;;;;;5049214;28;20041;-67
2023/05/23 14:46:14;;;;;;;2.78;1.40;;;;;;;;;;5048804;28;20376;-66